Time;durP1;ratioP1;P1;durP2;ratioP2;P2;SDS_P1;SDS_P2;PMS_P1;PMS_P2;Temp;Humidity;BMP_temperature;BMP_pressure;BME280_temperature;BME280_humidity;BME280_pressure;Samples;Min_cycle;Max_cycle;Signal;HPM_P1;HPM_P2
2023/07/01 00:01:42;;;;;;;1.30;1.00;;;;;;;;;;4968586;28;20039;-75
2023/07/01 00:04:08;;;;;;;0.82;0.73;;;;;;;;;;4967085;28;20026;-73
2023/07/01 00:06:34;;;;;;;1.77;0.90;;;;;;;;;;4967406;28;20042;-73
2023/07/01 00:09:00;;;;;;;1.23;0.85;;;;;;;;;;4969748;28;20097;-75
2023/07/01 00:11:28;;;;;;;0.85;0.80;;;;;;;;;;4969805;28;20038;-75
2023/07/01 00:13:54;;;;;;;1.20;0.90;;;;;;;;;;4968075;28;20023;-75
2023/07/01 00:16:20;;;;;;;1.30;0.85;;;;;;;;;;4972946;28;20026;-75
2023/07/01 00:18:46;;;;;;;2.85;0.80;;;;;;;;;;4974972;28;20085;-76
2023/07/01 00:21:12;;;;;;;0.63;0.63;;;;;;;;;;4970501;28;20371;-75
2023/07/01 00:23:38;;;;;;;0.85;0.80;;;;;;;;;;4969647;28;20034;-75
2023/07/01 00:26:04;;;;;;;1.73;1.00;;;;;;;;;;4967797;28;20027;-76
2023/07/01 00:28:30;;;;;;;0.95;0.90;;;;;;;;;;4971122;28;20077;-75
2023/07/01 00:30:56;;;;;;;1.23;0.90;;;;;;;;;;4969649;28;20498;-75
2023/07/01 00:33:22;;;;;;;1.08;0.98;;;;;;;;;;4969655;28;20494;-75
2023/07/01 00:35:48;;;;;;;1.20;1.10;;;;;;;;;;4968111;28;20466;-75
2023/07/01 00:38:14;;;;;;;0.93;0.90;;;;;;;;;;4966388;28;20046;-73
2023/07/01 00:40:40;;;;;;;0.68;0.68;;;;;;;;;;4965069;28;20042;-75
2023/07/01 00:43:06;;;;;;;1.10;1.00;;;;;;;;;;4960996;28;20039;-75
2023/07/01 00:45:32;;;;;;;0.90;0.63;;;;;;;;;;4958487;28;20027;-75
2023/07/01 00:47:57;;;;;;;1.05;0.98;;;;;;;;;;4958156;28;20034;-76
2023/07/01 00:50:24;;;;;;;0.82;0.82;;;;;;;;;;4962902;28;20023;-75
2023/07/01 00:52:50;;;;;;;1.23;1.02;;;;;;;;;;4967517;28;20026;-75
2023/07/01 00:55:16;;;;;;;0.70;0.70;;;;;;;;;;4949189;28;20080;-75
2023/07/01 00:57:42;;;;;;;0.70;0.70;;;;;;;;;;4949304;28;20034;-75
2023/07/01 01:00:10;;;;;;;0.80;0.70;;;;;;;;;;4950850;28;20035;-75
2023/07/01 01:02:51;;;;;;;0.60;0.57;;;;;;;;;;4969105;28;20511;-75
2023/07/01 01:05:19;;;;;;;1.67;1.00;;;;;;;;;;4944882;28;20042;-76
2023/07/01 01:08:03;;;;;;;1.10;0.82;;;;;;;;;;4947416;28;20078;-75
2023/07/01 01:10:32;;;;;;;1.38;0.82;;;;;;;;;;4960914;28;20159;-76
2023/07/01 01:12:58;;;;;;;0.70;0.70;;;;;;;;;;4970095;28;20019;-75
2023/07/01 01:15:25;;;;;;;1.40;1.05;;;;;;;;;;4946555;28;20044;-75
2023/07/01 01:17:52;;;;;;;1.27;1.00;;;;;;;;;;4946135;28;20027;-75
2023/07/01 01:20:20;;;;;;;2.15;1.05;;;;;;;;;;4960790;28;20448;-75
2023/07/01 01:23:03;;;;;;;0.70;0.70;;;;;;;;;;4969022;28;20714;-75
2023/07/01 01:25:35;;;;;;;2.22;1.10;;;;;;;;;;4961632;28;20085;-75
2023/07/01 01:28:01;;;;;;;0.80;0.77;;;;;;;;;;4942698;28;20711;-76
2023/07/01 01:30:34;;;;;;;0.85;0.85;;;;;;;;;;4966001;28;20049;-75
2023/07/01 01:33:00;;;;;;;0.80;0.80;;;;;;;;;;4969344;28;20074;-75
2023/07/01 01:35:26;;;;;;;1.02;0.93;;;;;;;;;;4968605;28;20113;-75
2023/07/01 01:38:05;;;;;;;2.28;1.55;;;;;;;;;;4958011;28;20038;-75
2023/07/01 01:40:54;;;;;;;1.33;0.80;;;;;;;;;;4955212;28;20023;-75
2023/07/01 01:43:40;;;;;;;0.93;0.80;;;;;;;;;;4963959;28;20035;-73
2023/07/01 01:46:07;;;;;;;0.95;0.88;;;;;;;;;;4944035;28;20097;-75
2023/07/01 01:48:33;;;;;;;1.00;0.70;;;;;;;;;;4961576;28;20126;-75
2023/07/01 01:51:00;;;;;;;0.93;0.85;;;;;;;;;;4964445;28;20474;-75
2023/07/01 01:53:28;;;;;;;1.25;1.15;;;;;;;;;;4969797;28;20046;-73
2023/07/01 01:55:55;;;;;;;1.02;0.85;;;;;;;;;;4967136;28;20038;-75
2023/07/01 01:58:21;;;;;;;0.80;0.80;;;;;;;;;;4969025;28;20023;-76
2023/07/01 02:00:47;;;;;;;1.40;0.90;;;;;;;;;;4967736;28;20100;-75
2023/07/01 02:03:13;;;;;;;1.42;0.93;;;;;;;;;;4967737;28;20505;-75
2023/07/01 02:05:39;;;;;;;1.45;1.10;;;;;;;;;;4966747;28;20037;-76
2023/07/01 02:08:06;;;;;;;1.40;0.93;;;;;;;;;;4966958;28;20030;-75
2023/07/01 02:10:33;;;;;;;0.95;0.85;;;;;;;;;;4966337;28;20051;-75
2023/07/01 02:12:59;;;;;;;0.90;0.90;;;;;;;;;;4968133;28;20018;-75
2023/07/01 02:15:25;;;;;;;0.90;0.90;;;;;;;;;;4967488;28;20057;-75
2023/07/01 02:17:53;;;;;;;2.08;1.05;;;;;;;;;;4966063;28;20019;-75
2023/07/01 02:20:19;;;;;;;0.93;0.93;;;;;;;;;;4967643;28;20481;-75
2023/07/01 02:22:45;;;;;;;1.13;0.90;;;;;;;;;;4968609;28;20043;-76
2023/07/01 02:25:10;;;;;;;1.02;0.90;;;;;;;;;;4967007;28;20023;-75
2023/07/01 02:27:36;;;;;;;1.00;0.90;;;;;;;;;;4966691;28;20665;-75
2023/07/01 02:30:03;;;;;;;1.10;1.00;;;;;;;;;;4966938;28;20019;-75
2023/07/01 02:32:29;;;;;;;4.90;1.10;;;;;;;;;;4968523;28;20030;-76
2023/07/01 02:34:55;;;;;;;0.80;0.80;;;;;;;;;;4968051;28;20074;-76
2023/07/01 02:37:21;;;;;;;1.10;1.00;;;;;;;;;;4967263;28;20035;-75
2023/07/01 02:39:47;;;;;;;1.40;0.80;;;;;;;;;;4967360;28;20038;-76
2023/07/01 02:42:16;;;;;;;0.75;0.75;;;;;;;;;;4966576;28;20070;-75
2023/07/01 02:44:42;;;;;;;1.05;0.90;;;;;;;;;;4967618;28;20035;-75
2023/07/01 02:47:08;;;;;;;0.80;0.80;;;;;;;;;;4966777;28;20130;-76
2023/07/01 02:49:34;;;;;;;1.10;0.80;;;;;;;;;;4966830;28;20059;-76
2023/07/01 02:52:00;;;;;;;0.80;0.80;;;;;;;;;;4967050;28;20023;-75
2023/07/01 02:54:26;;;;;;;1.00;0.80;;;;;;;;;;4967987;28;20437;-76
2023/07/01 02:56:52;;;;;;;0.75;0.75;;;;;;;;;;4972586;28;20038;-75
2023/07/01 02:59:18;;;;;;;0.80;0.80;;;;;;;;;;4970153;28;20037;-75
2023/07/01 03:01:44;;;;;;;1.08;0.77;;;;;;;;;;4970258;28;20027;-75
2023/07/01 03:04:10;;;;;;;1.05;0.90;;;;;;;;;;4972131;28;20658;-76
2023/07/01 03:06:37;;;;;;;1.65;1.13;;;;;;;;;;4971010;28;20046;-75
2023/07/01 03:09:07;;;;;;;1.00;0.90;;;;;;;;;;4966962;28;20023;-76
2023/07/01 03:11:33;;;;;;;0.90;0.90;;;;;;;;;;4969388;28;20108;-75
2023/07/01 03:13:59;;;;;;;0.63;0.63;;;;;;;;;;4972648;28;20031;-75
2023/07/01 03:16:25;;;;;;;0.80;0.80;;;;;;;;;;4976166;28;20031;-75
2023/07/01 03:18:51;;;;;;;0.93;0.85;;;;;;;;;;4974301;28;20478;-75
2023/07/01 03:21:17;;;;;;;1.38;1.08;;;;;;;;;;4967943;28;20037;-75
2023/07/01 03:23:43;;;;;;;0.88;0.88;;;;;;;;;;4969999;28;20062;-75
2023/07/01 03:26:09;;;;;;;1.08;0.95;;;;;;;;;;4971056;28;20060;-76
2023/07/01 03:28:35;;;;;;;0.88;0.80;;;;;;;;;;4972320;28;20039;-75
2023/07/01 03:31:04;;;;;;;0.98;0.93;;;;;;;;;;4970962;28;20394;-75
2023/07/01 03:33:29;;;;;;;0.80;0.80;;;;;;;;;;4967034;28;20035;-75
2023/07/01 03:35:55;;;;;;;0.80;0.80;;;;;;;;;;4971464;28;20541;-75
2023/07/01 03:38:22;;;;;;;0.82;0.80;;;;;;;;;;4971208;28;20038;-75
2023/07/01 03:40:50;;;;;;;1.17;1.08;;;;;;;;;;4970508;28;20031;-75
2023/07/01 03:43:16;;;;;;;0.80;0.80;;;;;;;;;;4969155;28;20135;-75
2023/07/01 03:45:42;;;;;;;1.25;1.15;;;;;;;;;;4971005;28;20043;-75
2023/07/01 03:48:08;;;;;;;1.05;0.95;;;;;;;;;;4969445;28;20398;-75
2023/07/01 03:50:34;;;;;;;1.08;0.98;;;;;;;;;;4971549;28;20023;-75
2023/07/01 03:53:00;;;;;;;1.10;0.98;;;;;;;;;;4968864;28;20027;-75
2023/07/01 03:55:26;;;;;;;1.17;1.08;;;;;;;;;;4966436;28;20031;-76
2023/07/01 03:57:52;;;;;;;1.42;1.05;;;;;;;;;;4968437;28;20038;-75
2023/07/01 04:00:18;;;;;;;1.15;1.05;;;;;;;;;;4963655;28;20019;-76
2023/07/01 04:02:45;;;;;;;1.40;1.10;;;;;;;;;;4962927;28;20033;-74
2023/07/01 04:05:11;;;;;;;1.27;0.88;;;;;;;;;;4969425;28;20038;-75
2023/07/01 04:07:38;;;;;;;1.33;0.93;;;;;;;;;;4969877;28;20113;-75
2023/07/01 04:10:07;;;;;;;0.80;0.80;;;;;;;;;;4969062;28;20031;-75
2023/07/01 04:12:33;;;;;;;1.30;1.20;;;;;;;;;;4970622;28;20089;-75
2023/07/01 04:15:00;;;;;;;1.17;0.98;;;;;;;;;;4970953;28;20026;-75
2023/07/01 04:17:26;;;;;;;1.40;1.10;;;;;;;;;;4967434;28;20027;-76
2023/07/01 04:19:52;;;;;;;1.42;1.25;;;;;;;;;;4968853;28;20410;-75
2023/07/01 04:22:19;;;;;;;1.10;0.82;;;;;;;;;;4971137;28;20121;-76
2023/07/01 04:24:45;;;;;;;0.93;0.82;;;;;;;;;;4971334;28;20082;-75
2023/07/01 04:27:11;;;;;;;1.30;1.00;;;;;;;;;;4968232;28;20034;-75
2023/07/01 04:29:37;;;;;;;1.35;1.20;;;;;;;;;;4968817;28;20037;-75
2023/07/01 04:32:03;;;;;;;1.02;0.90;;;;;;;;;;4968231;28;20027;-75
2023/07/01 04:34:29;;;;;;;1.25;1.02;;;;;;;;;;4963392;28;20026;-75
2023/07/01 04:36:55;;;;;;;1.33;0.98;;;;;;;;;;4970872;28;20077;-75
2023/07/01 04:39:23;;;;;;;0.80;0.80;;;;;;;;;;4969099;28;20039;-75
2023/07/01 04:41:51;;;;;;;1.20;1.10;;;;;;;;;;4968148;28;20389;-75
2023/07/01 04:44:17;;;;;;;0.90;0.90;;;;;;;;;;4967189;28;20042;-75
2023/07/01 04:46:43;;;;;;;2.45;1.00;;;;;;;;;;4969221;28;20038;-74
2023/07/01 04:49:09;;;;;;;1.08;0.95;;;;;;;;;;4970466;28;20085;-74
2023/07/01 04:51:38;;;;;;;1.02;0.93;;;;;;;;;;4966660;28;20034;-74
2023/07/01 04:54:04;;;;;;;2.38;1.38;;;;;;;;;;4965865;28;20027;-75
2023/07/01 04:56:31;;;;;;;1.35;0.88;;;;;;;;;;4969173;28;20038;-75
2023/07/01 04:58:56;;;;;;;1.25;1.10;;;;;;;;;;4970825;28;20081;-75
2023/07/01 05:01:23;;;;;;;1.70;1.20;;;;;;;;;;4966536;28;20043;-74
2023/07/01 05:03:48;;;;;;;1.45;0.93;;;;;;;;;;4969477;28;20527;-74
2023/07/01 05:06:15;;;;;;;0.88;0.85;;;;;;;;;;4969461;28;20038;-74
2023/07/01 05:08:41;;;;;;;1.63;1.05;;;;;;;;;;4969215;28;20546;-75
2023/07/01 05:11:07;;;;;;;0.80;0.80;;;;;;;;;;4968771;28;20027;-74
2023/07/01 05:13:33;;;;;;;1.50;1.30;;;;;;;;;;4966905;28;20098;-74
2023/07/01 05:15:59;;;;;;;1.20;1.10;;;;;;;;;;4970670;28;20039;-75
2023/07/01 05:18:25;;;;;;;1.27;1.10;;;;;;;;;;4966853;28;22022;-74
2023/07/01 05:20:51;;;;;;;1.27;0.90;;;;;;;;;;4966057;28;20082;-75
2023/07/01 05:23:17;;;;;;;1.10;1.00;;;;;;;;;;4965941;28;20038;-75
2023/07/01 05:25:43;;;;;;;1.50;1.10;;;;;;;;;;4967380;28;20029;-74
2023/07/01 05:28:09;;;;;;;1.48;1.38;;;;;;;;;;4968601;28;20030;-75
2023/07/01 05:30:35;;;;;;;1.42;1.27;;;;;;;;;;4969554;28;20042;-75
2023/07/01 05:33:01;;;;;;;2.85;1.80;;;;;;;;;;4964443;28;20031;-74
2023/07/01 05:35:27;;;;;;;1.15;1.02;;;;;;;;;;4965173;28;20474;-75
2023/07/01 05:37:53;;;;;;;1.17;1.00;;;;;;;;;;4969082;28;20041;-75
2023/07/01 05:40:19;;;;;;;0.80;0.80;;;;;;;;;;4973003;28;20033;-76
2023/07/01 05:42:45;;;;;;;1.40;1.13;;;;;;;;;;4969731;28;20042;-75
2023/07/01 05:45:11;;;;;;;1.20;0.98;;;;;;;;;;4966597;28;20031;-75
2023/07/01 05:47:37;;;;;;;1.13;1.02;;;;;;;;;;4968589;28;20027;-75
2023/07/01 05:50:03;;;;;;;1.20;1.10;;;;;;;;;;4963408;28;20029;-75
2023/07/01 05:52:30;;;;;;;1.20;1.10;;;;;;;;;;4968744;28;20045;-75
2023/07/01 05:54:56;;;;;;;1.80;1.05;;;;;;;;;;4968660;28;20015;-75
2023/07/01 05:57:22;;;;;;;1.20;1.00;;;;;;;;;;4966206;28;20039;-75
2023/07/01 05:59:47;;;;;;;1.48;1.10;;;;;;;;;;4969420;28;20042;-75
2023/07/01 06:02:14;;;;;;;1.63;1.20;;;;;;;;;;4967979;28;20038;-74
2023/07/01 06:04:39;;;;;;;1.08;0.98;;;;;;;;;;4963633;28;20029;-75
2023/07/01 06:07:05;;;;;;;1.23;1.00;;;;;;;;;;4967063;28;20043;-75
2023/07/01 06:09:31;;;;;;;1.65;1.02;;;;;;;;;;4974825;28;20023;-75
2023/07/01 06:11:57;;;;;;;0.98;0.85;;;;;;;;;;4968777;28;20034;-75
2023/07/01 06:14:23;;;;;;;1.13;1.02;;;;;;;;;;4969572;28;20035;-75
2023/07/01 06:16:49;;;;;;;1.10;1.00;;;;;;;;;;4973851;28;20065;-75
2023/07/01 06:19:15;;;;;;;1.05;0.95;;;;;;;;;;4973150;28;20135;-75
2023/07/01 06:21:41;;;;;;;1.13;1.00;;;;;;;;;;4967199;28;20490;-75
2023/07/01 06:24:09;;;;;;;1.73;1.10;;;;;;;;;;4968197;28;20089;-76
2023/07/01 06:26:38;;;;;;;1.30;1.20;;;;;;;;;;4960764;28;20376;-75
2023/07/01 06:29:04;;;;;;;2.13;1.20;;;;;;;;;;4958791;28;20042;-75
2023/07/01 06:31:31;;;;;;;1.33;1.23;;;;;;;;;;4964446;28;20466;-74
2023/07/01 06:33:57;;;;;;;1.10;1.00;;;;;;;;;;4965724;28;20359;-74
2023/07/01 06:36:23;;;;;;;3.80;1.25;;;;;;;;;;4967230;28;20042;-78
2023/07/01 06:38:49;;;;;;;4.35;1.40;;;;;;;;;;4963354;28;20029;-75
2023/07/01 06:41:15;;;;;;;1.88;1.20;;;;;;;;;;4965190;28;20034;-73
2023/07/01 06:43:41;;;;;;;2.67;1.27;;;;;;;;;;4968036;28;20100;-76
2023/07/01 06:46:07;;;;;;;1.00;0.90;;;;;;;;;;4966594;28;20478;-75
2023/07/01 06:48:33;;;;;;;0.98;0.90;;;;;;;;;;4960540;28;20041;-75
2023/07/01 06:50:59;;;;;;;1.65;1.40;;;;;;;;;;4960370;28;20026;-74
2023/07/01 06:53:25;;;;;;;1.73;1.30;;;;;;;;;;4963693;28;20045;-75
2023/07/01 06:56:25;;;;;;;1.17;1.08;;;;;;;;;;4962185;28;20031;-73
2023/07/01 06:58:51;;;;;;;1.00;0.95;;;;;;;;;;4957638;28;20176;-75
2023/07/01 07:01:17;;;;;;;3.10;0.98;;;;;;;;;;4964915;28;20031;-75
2023/07/01 07:03:43;;;;;;;1.42;1.25;;;;;;;;;;4968379;28;20019;-75
2023/07/01 07:06:09;;;;;;;2.13;1.40;;;;;;;;;;4967326;28;20047;-75
2023/07/01 07:08:36;;;;;;;1.85;1.20;;;;;;;;;;4966160;28;20042;-75
2023/07/01 07:11:11;;;;;;;1.30;1.10;;;;;;;;;;4968979;28;20398;-75
2023/07/01 07:13:37;;;;;;;1.95;1.20;;;;;;;;;;4966988;28;20035;-76
2023/07/01 07:16:04;;;;;;;1.60;1.38;;;;;;;;;;4967522;28;20088;-75
2023/07/01 07:18:30;;;;;;;1.13;1.02;;;;;;;;;;4976815;28;20023;-75
2023/07/01 07:20:56;;;;;;;1.30;1.20;;;;;;;;;;4966282;28;20026;-76
2023/07/01 07:23:22;;;;;;;1.65;1.30;;;;;;;;;;4963980;28;20026;-76
2023/07/01 07:25:48;;;;;;;1.20;1.10;;;;;;;;;;4965544;28;20118;-78
2023/07/01 07:28:14;;;;;;;1.30;1.13;;;;;;;;;;4965535;28;22029;-75
2023/07/01 07:30:40;;;;;;;1.02;0.93;;;;;;;;;;4956191;28;20024;-76
2023/07/01 07:33:07;;;;;;;1.23;1.15;;;;;;;;;;4956764;28;20089;-76
2023/07/01 07:35:33;;;;;;;1.23;1.13;;;;;;;;;;4961991;28;20038;-76
2023/07/01 07:37:59;;;;;;;2.17;1.17;;;;;;;;;;4960551;28;20034;-76
2023/07/01 07:40:25;;;;;;;1.40;1.10;;;;;;;;;;4959348;28;20118;-80
2023/07/01 07:42:54;;;;;;;2.30;1.52;;;;;;;;;;4963491;28;20381;-80
2023/07/01 07:45:21;;;;;;;5.70;1.58;;;;;;;;;;4965905;28;20034;-77
2023/07/01 07:47:47;;;;;;;1.70;1.20;;;;;;;;;;4964646;28;20113;-78
2023/07/01 07:50:13;;;;;;;1.42;1.20;;;;;;;;;;4967028;28;20034;-77
2023/07/01 07:52:39;;;;;;;1.45;1.35;;;;;;;;;;4965961;28;20499;-76
2023/07/01 07:55:05;;;;;;;1.25;1.15;;;;;;;;;;4969410;28;20031;-76
2023/07/01 07:57:31;;;;;;;2.05;1.30;;;;;;;;;;4970542;28;20566;-75
2023/07/01 07:59:57;;;;;;;1.52;1.23;;;;;;;;;;4968307;28;20038;-76
2023/07/01 08:02:23;;;;;;;1.08;1.00;;;;;;;;;;4966359;28;20038;-75
2023/07/01 08:04:51;;;;;;;2.13;1.17;;;;;;;;;;4966953;28;20437;-75
2023/07/01 08:07:17;;;;;;;1.15;1.05;;;;;;;;;;4969858;28;20050;-76
2023/07/01 08:09:43;;;;;;;1.48;1.05;;;;;;;;;;4968679;28;20026;-77
2023/07/01 08:12:09;;;;;;;1.50;1.17;;;;;;;;;;4968061;28;20042;-75
2023/07/01 08:14:35;;;;;;;1.95;1.40;;;;;;;;;;4968161;28;20030;-76
2023/07/01 08:17:02;;;;;;;1.50;1.27;;;;;;;;;;4969159;28;20023;-76
2023/07/01 08:19:28;;;;;;;1.77;1.13;;;;;;;;;;4967766;28;20105;-76
2023/07/01 08:21:54;;;;;;;1.02;1.00;;;;;;;;;;4967405;28;20390;-76
2023/07/01 08:24:21;;;;;;;0.90;0.90;;;;;;;;;;4968258;28;20026;-77
2023/07/01 08:26:47;;;;;;;1.10;1.05;;;;;;;;;;4967870;28;20118;-75
2023/07/01 08:29:13;;;;;;;2.20;1.20;;;;;;;;;;4967567;28;20560;-76
2023/07/01 08:31:40;;;;;;;2.90;1.15;;;;;;;;;;4968511;28;20023;-77
2023/07/01 08:34:06;;;;;;;1.67;1.20;;;;;;;;;;4965758;28;20031;-76
2023/07/01 08:36:32;;;;;;;1.35;1.10;;;;;;;;;;4965435;28;20031;-79
2023/07/01 08:38:58;;;;;;;2.42;1.10;;;;;;;;;;4967744;28;20029;-78
2023/07/01 08:41:25;;;;;;;1.02;1.00;;;;;;;;;;4968141;28;20371;-76
2023/07/01 08:43:54;;;;;;;1.40;1.30;;;;;;;;;;4966091;28;20030;-79
2023/07/01 08:46:22;;;;;;;2.45;1.17;;;;;;;;;;4967917;28;20548;-76
2023/07/01 08:48:48;;;;;;;2.67;0.90;;;;;;;;;;4965329;28;20026;-76
2023/07/01 08:51:18;;;;;;;1.08;0.98;;;;;;;;;;4966729;28;20023;-78
2023/07/01 08:53:45;;;;;;;1.00;0.90;;;;;;;;;;4967242;28;20411;-78
2023/07/01 08:56:13;;;;;;;1.25;1.15;;;;;;;;;;4967275;28;20019;-76
2023/07/01 08:58:39;;;;;;;1.15;1.05;;;;;;;;;;4963237;28;20058;-76
2023/07/01 09:01:05;;;;;;;1.23;1.13;;;;;;;;;;4963001;28;20033;-76
2023/07/01 09:03:35;;;;;;;1.02;1.00;;;;;;;;;;4960389;28;20774;-78
2023/07/01 09:06:01;;;;;;;1.20;1.08;;;;;;;;;;4967688;28;20043;-79
2023/07/01 09:08:27;;;;;;;1.30;1.20;;;;;;;;;;4968014;28;20038;-77
2023/07/01 09:10:53;;;;;;;0.95;0.93;;;;;;;;;;4965478;28;20109;-78
2023/07/01 09:13:19;;;;;;;1.35;1.25;;;;;;;;;;4961876;28;20390;-77
2023/07/01 09:15:48;;;;;;;0.93;0.93;;;;;;;;;;4965684;28;20022;-79
2023/07/01 09:18:19;;;;;;;1.58;1.30;;;;;;;;;;4968506;28;20114;-79
2023/07/01 09:20:45;;;;;;;1.50;1.30;;;;;;;;;;4964015;28;20037;-79
2023/07/01 09:23:11;;;;;;;1.42;1.27;;;;;;;;;;4965239;28;20122;-75
2023/07/01 09:25:37;;;;;;;2.00;1.52;;;;;;;;;;4955984;28;20015;-77
2023/07/01 09:28:03;;;;;;;1.80;1.20;;;;;;;;;;4962911;28;20470;-78
2023/07/01 09:30:29;;;;;;;1.20;1.10;;;;;;;;;;4964595;28;20106;-75
2023/07/01 09:33:10;;;;;;;1.27;1.10;;;;;;;;;;4961646;28;20033;-75
2023/07/01 09:35:43;;;;;;;1.58;1.20;;;;;;;;;;4963686;28;20019;-76
2023/07/01 09:38:09;;;;;;;1.25;1.15;;;;;;;;;;4965383;28;20043;-76
2023/07/01 09:40:35;;;;;;;0.82;0.82;;;;;;;;;;4962821;28;20031;-75
2023/07/01 09:43:01;;;;;;;1.48;1.27;;;;;;;;;;4963452;28;20056;-77
2023/07/01 09:45:27;;;;;;;1.65;1.17;;;;;;;;;;4968454;28;20105;-77
2023/07/01 09:47:53;;;;;;;1.55;1.20;;;;;;;;;;4968112;28;20566;-76
2023/07/01 09:50:23;;;;;;;1.88;1.25;;;;;;;;;;4966304;28;20493;-75
2023/07/01 09:52:50;;;;;;;2.85;1.50;;;;;;;;;;4966412;28;20023;-77
2023/07/01 09:55:16;;;;;;;1.65;1.30;;;;;;;;;;4967865;28;20038;-79
2023/07/01 09:57:42;;;;;;;3.83;1.45;;;;;;;;;;4968230;28;20037;-76
2023/07/01 10:00:17;;;;;;;1.05;0.95;;;;;;;;;;4967574;28;20031;-76
2023/07/01 10:02:48;;;;;;;1.60;1.10;;;;;;;;;;4959902;28;20038;-76
2023/07/01 10:05:14;;;;;;;3.03;1.30;;;;;;;;;;4965471;28;20031;-72
2023/07/01 10:07:40;;;;;;;1.17;1.08;;;;;;;;;;4966966;28;20063;-75
2023/07/01 10:10:21;;;;;;;1.05;0.88;;;;;;;;;;4967678;28;20043;-75
2023/07/01 10:12:47;;;;;;;2.25;1.30;;;;;;;;;;4963087;28;20033;-74
2023/07/01 10:15:14;;;;;;;1.08;1.02;;;;;;;;;;4967716;28;20077;-75
2023/07/01 10:17:49;;;;;;;5.13;1.13;;;;;;;;;;4970503;28;20039;-75
2023/07/01 10:20:24;;;;;;;1.10;1.00;;;;;;;;;;4967642;28;20039;-75
2023/07/01 10:22:58;;;;;;;1.90;1.25;;;;;;;;;;4961477;28;20516;-74
2023/07/01 10:25:41;;;;;;;2.55;1.40;;;;;;;;;;4963101;28;20041;-74
2023/07/01 10:28:08;;;;;;;1.05;0.98;;;;;;;;;;4962364;28;20085;-75
2023/07/01 10:30:45;;;;;;;1.38;1.20;;;;;;;;;;4966807;28;20030;-75
2023/07/01 10:33:33;;;;;;;1.20;1.10;;;;;;;;;;4965644;28;20034;-74
2023/07/01 10:36:13;;;;;;;3.35;1.10;;;;;;;;;;4963505;28;20121;-75
2023/07/01 10:38:39;;;;;;;1.38;1.02;;;;;;;;;;4966428;28;20031;-75
2023/07/01 10:41:06;;;;;;;1.45;1.00;;;;;;;;;;4967204;28;20030;-75
2023/07/01 10:43:33;;;;;;;1.98;1.17;;;;;;;;;;4967042;28;20042;-75
2023/07/01 10:46:18;;;;;;;1.98;1.10;;;;;;;;;;4969465;28;20110;-77
2023/07/01 10:49:04;;;;;;;2.28;1.20;;;;;;;;;;4966693;28;20394;-76
2023/07/01 10:51:42;;;;;;;1.27;1.05;;;;;;;;;;4968324;28;20031;-76
2023/07/01 10:54:08;;;;;;;0.95;0.95;;;;;;;;;;4967592;28;20487;-76
2023/07/01 10:56:35;;;;;;;2.15;1.17;;;;;;;;;;4966962;28;20030;-76
2023/07/01 10:59:21;;;;;;;1.50;1.30;;;;;;;;;;4966892;28;20054;-76
2023/07/01 11:01:56;;;;;;;1.23;1.10;;;;;;;;;;4967461;28;20045;-76
2023/07/01 11:04:23;;;;;;;1.60;1.17;;;;;;;;;;4968730;28;20041;-76
2023/07/01 11:06:53;;;;;;;1.40;1.17;;;;;;;;;;4968014;28;20049;-76
2023/07/01 11:09:29;;;;;;;1.23;1.10;;;;;;;;;;4966192;28;20030;-76
2023/07/01 11:11:56;;;;;;;1.67;1.15;;;;;;;;;;4965899;28;20029;-76
2023/07/01 11:14:29;;;;;;;1.10;1.00;;;;;;;;;;4967537;28;20110;-76
2023/07/01 11:17:04;;;;;;;2.72;1.30;;;;;;;;;;4970887;28;20457;-76
2023/07/01 11:19:30;;;;;;;1.13;1.05;;;;;;;;;;4971436;28;20034;-76
2023/07/01 11:21:56;;;;;;;1.23;1.08;;;;;;;;;;4968904;28;20035;-76
2023/07/01 11:24:25;;;;;;;4.03;1.35;;;;;;;;;;4968907;28;20636;-76
2023/07/01 11:26:51;;;;;;;1.20;1.10;;;;;;;;;;4969701;28;20145;-76
2023/07/01 11:29:18;;;;;;;3.58;1.17;;;;;;;;;;4971280;28;20478;-76
2023/07/01 11:31:44;;;;;;;1.52;1.42;;;;;;;;;;4970397;28;20022;-76
2023/07/01 11:34:11;;;;;;;1.25;1.13;;;;;;;;;;4970963;28;20376;-76
2023/07/01 11:36:38;;;;;;;1.73;1.20;;;;;;;;;;4970039;28;20089;-76
2023/07/01 11:39:06;;;;;;;1.83;1.10;;;;;;;;;;4970692;28;20117;-76
2023/07/01 11:41:32;;;;;;;1.25;1.10;;;;;;;;;;4970977;28;20045;-76
2023/07/01 11:43:58;;;;;;;1.08;0.98;;;;;;;;;;4971876;28;20101;-76
2023/07/01 11:46:31;;;;;;;1.25;0.90;;;;;;;;;;4972171;28;20541;-77
2023/07/01 11:48:57;;;;;;;1.30;1.20;;;;;;;;;;4971910;28;20027;-76
2023/07/01 11:51:40;;;;;;;2.50;1.33;;;;;;;;;;4969650;28;20020;-76
2023/07/01 11:54:06;;;;;;;1.33;1.02;;;;;;;;;;4966419;28;20647;-76
2023/07/01 11:56:32;;;;;;;1.02;1.00;;;;;;;;;;4970032;28;20693;-76
2023/07/01 11:58:58;;;;;;;1.52;1.33;;;;;;;;;;4962389;28;20042;-76
2023/07/01 12:01:24;;;;;;;0.85;0.85;;;;;;;;;;4969778;28;20026;-74
2023/07/01 12:03:53;;;;;;;1.42;1.17;;;;;;;;;;4965147;28;20125;-76
2023/07/01 12:06:22;;;;;;;1.58;1.10;;;;;;;;;;4971644;28;20051;-76
2023/07/01 12:09:03;;;;;;;2.75;1.40;;;;;;;;;;4971754;28;20026;-76
2023/07/01 12:11:29;;;;;;;1.15;1.00;;;;;;;;;;4968523;28;20042;-76
2023/07/01 12:13:55;;;;;;;1.17;1.02;;;;;;;;;;4964004;28;20035;-76
2023/07/01 12:16:21;;;;;;;1.77;1.10;;;;;;;;;;4972123;28;20046;-76
2023/07/01 12:18:47;;;;;;;1.52;1.20;;;;;;;;;;4971583;28;20030;-76
2023/07/01 12:21:13;;;;;;;1.42;1.13;;;;;;;;;;4969579;28;20027;-76
2023/07/01 12:23:40;;;;;;;2.25;1.17;;;;;;;;;;4969860;28;20042;-74
2023/07/01 12:26:06;;;;;;;0.90;0.88;;;;;;;;;;4961083;28;20035;-76
2023/07/01 12:28:32;;;;;;;1.15;1.05;;;;;;;;;;4970488;28;20046;-76
2023/07/01 12:30:58;;;;;;;1.45;1.20;;;;;;;;;;4970762;28;20023;-76
2023/07/01 12:33:24;;;;;;;1.42;1.30;;;;;;;;;;4968549;28;20041;-76
2023/07/01 12:35:51;;;;;;;1.20;1.10;;;;;;;;;;4969747;28;20031;-75
2023/07/01 12:38:17;;;;;;;1.45;1.17;;;;;;;;;;4971395;28;20030;-74
2023/07/01 12:40:43;;;;;;;0.90;0.90;;;;;;;;;;4969943;28;20034;-75
2023/07/01 12:43:10;;;;;;;1.38;1.00;;;;;;;;;;4967402;28;20732;-74
2023/07/01 12:45:37;;;;;;;1.92;1.20;;;;;;;;;;4969490;28;20117;-76
2023/07/01 12:48:07;;;;;;;1.00;0.90;;;;;;;;;;4970888;28;20363;-75
2023/07/01 12:50:33;;;;;;;1.10;1.00;;;;;;;;;;4970817;28;20045;-75
2023/07/01 12:53:02;;;;;;;1.73;1.23;;;;;;;;;;4969437;28;20747;-76
2023/07/01 12:55:28;;;;;;;2.47;1.27;;;;;;;;;;4969818;28;20023;-75
2023/07/01 12:57:54;;;;;;;2.47;1.38;;;;;;;;;;4969435;28;20053;-75
2023/07/01 13:00:20;;;;;;;1.23;1.10;;;;;;;;;;4970909;28;20035;-76
2023/07/01 13:02:46;;;;;;;1.02;0.93;;;;;;;;;;4969200;28;20039;-75
2023/07/01 13:05:14;;;;;;;1.15;1.02;;;;;;;;;;4970509;28;20062;-75
2023/07/01 13:07:40;;;;;;;1.00;0.90;;;;;;;;;;4968726;28;20053;-75
2023/07/01 13:10:09;;;;;;;1.35;1.23;;;;;;;;;;4970675;28;20027;-75
2023/07/01 13:12:36;;;;;;;1.35;1.10;;;;;;;;;;4969500;28;20054;-75
2023/07/01 13:15:02;;;;;;;1.67;1.20;;;;;;;;;;4970400;28;20114;-75
2023/07/01 13:17:36;;;;;;;1.52;1.08;;;;;;;;;;4980731;28;20027;-76
2023/07/01 13:20:04;;;;;;;1.90;1.00;;;;;;;;;;4960355;28;20023;-76
2023/07/01 13:22:29;;;;;;;1.00;0.80;;;;;;;;;;4968915;28;20130;-76
2023/07/01 13:24:55;;;;;;;3.95;1.35;;;;;;;;;;4968073;28;20398;-76
2023/07/01 13:27:22;;;;;;;1.13;1.00;;;;;;;;;;4969758;28;20105;-76
2023/07/01 13:29:48;;;;;;;1.77;1.20;;;;;;;;;;4968946;28;20188;-76
2023/07/01 13:32:14;;;;;;;1.10;1.00;;;;;;;;;;4968777;28;20023;-75
2023/07/01 13:34:43;;;;;;;1.17;1.00;;;;;;;;;;4969025;28;20053;-75
2023/07/01 13:37:13;;;;;;;1.23;0.88;;;;;;;;;;4970053;28;20018;-75
2023/07/01 13:39:39;;;;;;;1.08;0.95;;;;;;;;;;4968594;28;20034;-76
2023/07/01 13:42:05;;;;;;;3.17;1.23;;;;;;;;;;4970180;28;20042;-76
2023/07/01 13:44:37;;;;;;;1.10;1.00;;;;;;;;;;4969157;28;20031;-76
2023/07/01 13:47:04;;;;;;;2.95;0.95;;;;;;;;;;4970018;28;20050;-76
2023/07/01 13:49:30;;;;;;;0.80;0.80;;;;;;;;;;4965957;28;20515;-76
2023/07/01 13:51:56;;;;;;;1.30;1.08;;;;;;;;;;4968660;28;20026;-76
2023/07/01 13:54:26;;;;;;;0.90;0.80;;;;;;;;;;4969228;28;20026;-76
2023/07/01 13:56:53;;;;;;;1.17;1.00;;;;;;;;;;4969264;28;20508;-76
2023/07/01 13:59:20;;;;;;;2.35;1.30;;;;;;;;;;4969065;28;20065;-76
2023/07/01 14:02:00;;;;;;;5.65;1.20;;;;;;;;;;4969334;28;20030;-76
2023/07/01 14:04:27;;;;;;;1.00;0.85;;;;;;;;;;4969617;28;20026;-76
2023/07/01 14:06:53;;;;;;;0.98;0.88;;;;;;;;;;4965786;28;20045;-75
2023/07/01 14:09:23;;;;;;;0.88;0.88;;;;;;;;;;4968173;28;20022;-75
2023/07/01 14:11:49;;;;;;;1.50;1.00;;;;;;;;;;4966535;28;20042;-76
2023/07/01 14:14:19;;;;;;;1.55;1.10;;;;;;;;;;4964774;28;20036;-79
2023/07/01 14:16:46;;;;;;;1.33;0.80;;;;;;;;;;4960633;28;20042;-81
2023/07/01 14:19:13;;;;;;;1.63;1.08;;;;;;;;;;4967519;28;20034;-82
2023/07/01 14:21:39;;;;;;;1.33;0.90;;;;;;;;;;4967810;28;20023;-82
2023/07/01 14:24:05;;;;;;;0.95;0.90;;;;;;;;;;4967892;28;20042;-83
2023/07/01 14:26:38;;;;;;;1.08;0.98;;;;;;;;;;4968425;28;20560;-81
2023/07/01 14:29:03;;;;;;;3.05;1.15;;;;;;;;;;4957201;28;20030;-80
2023/07/01 14:31:33;;;;;;;1.38;0.88;;;;;;;;;;4963196;28;20029;-79
2023/07/01 14:34:00;;;;;;;1.08;0.82;;;;;;;;;;4965046;28;20061;-84
2023/07/01 14:36:31;;;;;;;2.15;1.45;;;;;;;;;;4968462;28;20023;-83
2023/07/01 14:38:58;;;;;;;;;;;;;;;;;;4969087;28;20030;-81
2023/07/01 14:41:28;;;;;;;2.40;1.20;;;;;;;;;;4963476;28;19910;-80
2023/07/01 14:43:56;;;;;;;1.00;1.00;;;;;;;;;;4964860;28;20093;-82
2023/07/01 14:46:22;;;;;;;1.10;0.98;;;;;;;;;;4967286;28;20023;-80